createdAt,value
2022-12-04T00:01:42.815Z,1004.00
2022-12-04T00:02:42.824Z,1003.95
2022-12-04T00:04:46.838Z,1003.98
2022-12-04T00:05:46.726Z,1003.95
2022-12-04T00:07:50.736Z,1004.01
2022-12-04T00:08:50.638Z,1004.03
2022-12-04T00:10:54.577Z,1004.03
2022-12-04T00:11:54.556Z,1004.04
2022-12-04T00:14:03.114Z,1004.05
2022-12-04T00:15:24.596Z,1004.07
2022-12-04T00:17:02.413Z,1004.05
2022-12-04T00:18:02.387Z,1004.06
2022-12-04T00:20:06.329Z,1004.00
2022-12-04T00:21:06.311Z,1004.03
2022-12-04T00:23:10.242Z,1004.11
2022-12-04T00:24:10.223Z,1004.09
2022-12-04T00:26:14.167Z,1004.17
2022-12-04T00:27:14.140Z,1004.15
2022-12-04T00:29:18.071Z,1004.16
2022-12-04T00:30:18.054Z,1004.11
2022-12-04T00:32:21.994Z,1004.15
2022-12-04T00:33:21.965Z,1004.11
2022-12-04T00:35:25.906Z,1004.16
2022-12-04T00:36:25.883Z,1004.16
2022-12-04T00:38:29.813Z,1004.19
2022-12-04T00:39:29.789Z,1004.24
2022-12-04T00:41:22.663Z,1004.16
2022-12-04T00:42:22.636Z,1004.19
2022-12-04T00:44:26.566Z,1004.10
2022-12-04T00:45:26.650Z,1004.08
2022-12-04T00:47:30.498Z,1004.09
2022-12-04T00:48:30.472Z,1004.09
2022-12-04T00:50:34.424Z,1004.09
2022-12-04T00:51:34.398Z,1004.09
2022-12-04T00:53:38.325Z,1004.10
2022-12-04T00:54:38.305Z,1004.10
2022-12-04T00:56:42.249Z,1004.04
2022-12-04T00:57:42.227Z,1004.06
2022-12-04T00:59:46.161Z,1004.01
2022-12-04T01:00:46.193Z,1004.00
2022-12-04T01:02:50.169Z,1003.99
2022-12-04T01:03:50.059Z,1003.99
2022-12-04T01:05:53.998Z,1004.01
2022-12-04T01:06:53.974Z,1004.04
2022-12-04T01:08:57.911Z,1003.99
2022-12-04T01:09:58.061Z,1003.96
2022-12-04T01:11:50.767Z,1003.99
2022-12-04T01:12:50.736Z,1003.99
2022-12-04T01:14:54.674Z,1003.99
2022-12-04T01:15:54.706Z,1004.03
2022-12-04T01:17:58.613Z,1003.98
2022-12-04T01:18:58.589Z,1003.99
2022-12-04T01:21:02.529Z,1003.93
2022-12-04T01:22:02.506Z,1003.90
2022-12-04T01:24:06.451Z,1003.88
2022-12-04T01:25:06.429Z,1003.88
2022-12-04T01:27:10.376Z,1003.80
2022-12-04T01:28:10.349Z,1003.78
2022-12-04T01:30:14.287Z,1003.75
2022-12-04T01:31:14.413Z,1003.74
2022-12-04T01:33:18.209Z,1003.64
2022-12-04T01:34:18.180Z,1003.65
2022-12-04T01:36:22.124Z,1003.59
2022-12-04T01:37:22.102Z,1003.59
2022-12-04T01:39:26.047Z,1003.60
2022-12-04T01:40:26.029Z,1003.65
2022-12-04T01:42:29.964Z,1003.60
2022-12-04T01:43:29.940Z,1003.64
2022-12-04T01:45:33.916Z,1003.65
2022-12-04T01:46:33.857Z,1003.67
2022-12-04T01:48:26.930Z,1003.69
2022-12-04T01:49:26.903Z,1003.73
2022-12-04T01:51:19.787Z,1003.77
2022-12-04T01:52:19.759Z,1003.82
2022-12-04T01:54:24.278Z,1003.89
2022-12-04T01:55:23.880Z,1003.89
2022-12-04T01:57:27.825Z,1003.91
2022-12-04T01:58:27.803Z,1003.96
2022-12-04T02:00:31.755Z,1003.99
2022-12-04T02:01:31.851Z,1004.00
2022-12-04T02:03:35.656Z,1004.00
2022-12-04T02:04:35.629Z,1003.98
2022-12-04T02:06:39.578Z,1004.05
2022-12-04T02:07:39.616Z,1003.98
2022-12-04T02:09:43.494Z,1003.95
2022-12-04T02:10:43.473Z,1003.94
2022-12-04T02:12:47.418Z,1003.88
2022-12-04T02:13:47.397Z,1003.93
2022-12-04T02:15:51.337Z,1003.87
2022-12-04T02:16:51.401Z,1003.89
2022-12-04T02:18:55.265Z,1003.85
2022-12-04T02:19:55.460Z,1003.89
2022-12-04T02:21:48.103Z,1003.91
2022-12-04T02:22:48.086Z,1003.86
2022-12-04T02:24:52.026Z,1003.89
2022-12-04T02:25:52.000Z,1003.91
2022-12-04T02:27:45.070Z,1003.95
2022-12-04T02:28:45.068Z,1003.94
2022-12-04T02:30:49.029Z,1003.95
2022-12-04T02:31:48.967Z,1003.96
2022-12-04T02:33:52.913Z,1003.97
2022-12-04T02:34:52.892Z,1003.97
2022-12-04T02:36:56.830Z,1003.94
2022-12-04T02:37:56.812Z,1003.97
2022-12-04T02:40:00.768Z,1003.97
2022-12-04T02:41:00.739Z,1003.99
2022-12-04T02:43:04.676Z,1003.95
2022-12-04T02:44:04.661Z,1003.91
2022-12-04T02:46:08.709Z,1003.92
2022-12-04T02:47:08.579Z,1003.85
2022-12-04T02:49:12.534Z,1003.84
2022-12-04T02:50:12.510Z,1003.85
2022-12-04T02:52:16.439Z,1003.87
2022-12-04T02:53:16.423Z,1003.91
2022-12-04T02:55:20.366Z,1003.87
2022-12-04T02:56:20.341Z,1003.81
2022-12-04T02:58:24.278Z,1003.78
2022-12-04T02:59:24.256Z,1003.79
2022-12-04T03:01:17.209Z,1003.82
2022-12-04T03:02:17.244Z,1003.85
2022-12-04T03:04:21.082Z,1003.92
2022-12-04T03:05:21.053Z,1003.88
2022-12-04T03:07:24.998Z,1003.90
2022-12-04T03:08:24.973Z,1003.90
2022-12-04T03:10:30.131Z,1003.88
2022-12-04T03:11:29.281Z,1003.87
2022-12-04T03:13:33.105Z,1003.85
2022-12-04T03:14:32.867Z,1003.87
2022-12-04T03:16:36.860Z,1003.85
2022-12-04T03:17:36.785Z,1003.82
2022-12-04T03:19:40.721Z,1003.80
2022-12-04T03:20:40.700Z,1003.79
2022-12-04T03:22:44.630Z,1003.79
2022-12-04T03:23:44.611Z,1003.74
2022-12-04T03:25:48.551Z,1003.75
2022-12-04T03:26:48.523Z,1003.76
2022-12-04T03:28:52.468Z,1003.76
2022-12-04T03:29:52.678Z,1003.71
2022-12-04T03:31:45.343Z,1003.68
2022-12-04T03:32:45.311Z,1003.69
2022-12-04T03:34:49.242Z,1003.60
2022-12-04T03:35:49.223Z,1003.56
2022-12-04T03:37:53.149Z,1003.65
2022-12-04T03:38:53.129Z,1003.65
2022-12-04T03:40:57.070Z,1003.61
2022-12-04T03:41:57.048Z,1003.61
2022-12-04T03:44:00.975Z,1003.55
2022-12-04T03:45:00.961Z,1003.57
2022-12-04T03:47:04.895Z,1003.51
2022-12-04T03:48:04.869Z,1003.56
2022-12-04T03:50:08.804Z,1003.57
2022-12-04T03:51:08.786Z,1003.61
2022-12-04T03:52:08.761Z,1003.56
2022-12-04T03:53:08.757Z,1003.60
2022-12-04T03:54:08.741Z,1003.60
2022-12-04T03:55:08.727Z,1003.57
2022-12-04T03:56:08.714Z,1003.51
2022-12-04T03:57:08.702Z,1003.55
2022-12-04T03:58:08.685Z,1003.54
2022-12-04T03:59:08.679Z,1003.54
2022-12-04T04:00:08.657Z,1003.56
2022-12-04T04:01:08.700Z,1003.58
2022-12-04T04:02:08.717Z,1003.52
2022-12-04T04:03:08.631Z,1003.50
2022-12-04T04:04:08.606Z,1003.56
2022-12-04T04:05:08.595Z,1003.55
2022-12-04T04:06:08.579Z,1003.55
2022-12-04T04:07:08.566Z,1003.50
2022-12-04T04:08:08.643Z,1003.52
2022-12-04T04:09:08.536Z,1003.48
2022-12-04T04:10:08.529Z,1003.49
2022-12-04T04:11:08.511Z,1003.53
2022-12-04T04:12:08.501Z,1003.54
2022-12-04T04:13:08.487Z,1003.55
2022-12-04T04:14:08.471Z,1003.59
2022-12-04T04:15:08.459Z,1003.57
2022-12-04T04:16:08.476Z,1003.52
2022-12-04T04:17:08.447Z,1003.54
2022-12-04T04:18:08.416Z,1003.59
2022-12-04T04:19:08.406Z,1003.56
2022-12-04T04:20:08.386Z,1003.63
2022-12-04T04:21:08.381Z,1003.59
2022-12-04T04:22:08.364Z,1003.61
2022-12-04T04:23:08.347Z,1003.61
2022-12-04T04:24:08.337Z,1003.61
2022-12-04T04:25:08.319Z,1003.62
2022-12-04T04:26:08.309Z,1003.64
2022-12-04T04:27:08.296Z,1003.59
2022-12-04T04:28:08.278Z,1003.58
2022-12-04T04:29:08.270Z,1003.57
2022-12-04T04:30:08.252Z,1003.58
2022-12-04T04:31:08.306Z,1003.55
2022-12-04T04:32:08.226Z,1003.58
2022-12-04T04:33:08.218Z,1003.56
2022-12-04T04:34:08.202Z,1003.56
2022-12-04T04:35:08.189Z,1003.57
2022-12-04T04:36:08.170Z,1003.53
2022-12-04T04:37:08.153Z,1003.56
2022-12-04T04:38:08.142Z,1003.54
2022-12-04T04:39:08.136Z,1003.53
2022-12-04T04:40:08.117Z,1003.53
2022-12-04T04:41:08.106Z,1003.52
2022-12-04T04:42:08.117Z,1003.52
2022-12-04T04:43:08.079Z,1003.52
2022-12-04T04:44:08.067Z,1003.53
2022-12-04T04:45:08.050Z,1003.55
2022-12-04T04:46:08.081Z,1003.53
2022-12-04T04:47:08.022Z,1003.58
2022-12-04T04:48:08.007Z,1003.59
2022-12-04T04:49:08.000Z,1003.56
2022-12-04T04:50:07.982Z,1003.61
2022-12-04T04:51:07.970Z,1003.63
2022-12-04T04:52:07.958Z,1003.57
2022-12-04T04:53:07.943Z,1003.58
2022-12-04T04:54:07.922Z,1003.62
2022-12-04T04:55:07.916Z,1003.55
2022-12-04T04:56:07.903Z,1003.56
2022-12-04T04:57:07.889Z,1003.57
2022-12-04T04:58:07.873Z,1003.54
2022-12-04T04:59:07.863Z,1003.55
2022-12-04T05:00:07.846Z,1003.53
2022-12-04T05:01:07.836Z,1003.50
2022-12-04T05:02:07.890Z,1003.49
2022-12-04T05:03:07.848Z,1003.47
2022-12-04T05:04:07.794Z,1003.47
2022-12-04T05:05:07.779Z,1003.46
2022-12-04T05:06:07.767Z,1003.49
2022-12-04T05:07:07.770Z,1003.51
2022-12-04T05:08:07.806Z,1003.51
2022-12-04T05:09:07.728Z,1003.49
2022-12-04T05:10:07.712Z,1003.51
2022-12-04T05:11:07.700Z,1003.50
2022-12-04T05:12:07.684Z,1003.50
2022-12-04T05:13:07.673Z,1003.48
2022-12-04T05:14:07.661Z,1003.46
2022-12-04T05:15:07.647Z,1003.48
2022-12-04T05:16:07.655Z,1003.45
2022-12-04T05:17:12.335Z,1003.42
2022-12-04T05:18:07.609Z,1003.43
2022-12-04T05:19:07.594Z,1003.45
2022-12-04T05:20:07.581Z,1003.44
2022-12-04T05:21:07.567Z,1003.44
2022-12-04T05:22:07.583Z,1003.45
2022-12-04T05:23:07.539Z,1003.46
2022-12-04T05:24:07.525Z,1003.42
2022-12-04T05:25:07.505Z,1003.45
2022-12-04T05:26:07.495Z,1003.46
2022-12-04T05:27:07.487Z,1003.49
2022-12-04T05:28:07.467Z,1003.50
2022-12-04T05:29:07.459Z,1003.47
2022-12-04T05:30:07.443Z,1003.47
2022-12-04T05:31:07.476Z,1003.47
2022-12-04T05:32:07.417Z,1003.45
2022-12-04T05:33:07.406Z,1003.42
2022-12-04T05:34:07.418Z,1003.43
2022-12-04T05:35:11.159Z,1003.47
2022-12-04T05:36:07.367Z,1003.45
2022-12-04T05:37:07.349Z,1003.53
2022-12-04T05:38:07.337Z,1003.54
2022-12-04T05:39:07.323Z,1003.51
2022-12-04T05:40:07.307Z,1003.55
2022-12-04T05:41:07.295Z,1003.58
2022-12-04T05:42:07.281Z,1003.60
2022-12-04T05:43:07.270Z,1003.58
2022-12-04T05:44:07.255Z,1003.62
2022-12-04T05:45:07.238Z,1003.61
2022-12-04T05:46:07.412Z,1003.58
2022-12-04T05:47:07.287Z,1003.57
2022-12-04T05:48:07.199Z,1003.56
2022-12-04T05:49:07.185Z,1003.60
2022-12-04T05:50:07.166Z,1003.64
2022-12-04T05:51:07.164Z,1003.63
2022-12-04T05:52:07.148Z,1003.66
2022-12-04T05:53:07.130Z,1003.65
2022-12-04T05:54:07.120Z,1003.67
2022-12-04T05:55:07.105Z,1003.64
2022-12-04T05:56:07.095Z,1003.66
2022-12-04T05:57:07.077Z,1003.66
2022-12-04T05:58:07.061Z,1003.67
2022-12-04T05:59:07.052Z,1003.64
2022-12-04T06:00:07.034Z,1003.64
2022-12-04T06:01:07.024Z,1003.63
2022-12-04T06:02:07.072Z,1003.67
2022-12-04T06:03:07.022Z,1003.63
2022-12-04T06:04:06.980Z,1003.64
2022-12-04T06:05:06.966Z,1003.72
2022-12-04T06:06:06.956Z,1003.70
2022-12-04T06:07:06.979Z,1003.73
2022-12-04T06:08:07.000Z,1003.68
2022-12-04T06:09:06.916Z,1003.66
2022-12-04T06:10:06.902Z,1003.68
2022-12-04T06:11:06.890Z,1003.67
2022-12-04T06:12:06.873Z,1003.71
2022-12-04T06:13:06.858Z,1003.74
2022-12-04T06:14:06.847Z,1003.75
2022-12-04T06:15:06.842Z,1003.73
2022-12-04T06:16:06.856Z,1003.73
2022-12-04T06:17:06.807Z,1003.70
2022-12-04T06:18:06.793Z,1003.72
2022-12-04T06:19:06.779Z,1003.72
2022-12-04T06:20:11.490Z,1003.70
2022-12-04T06:21:06.759Z,1003.72
2022-12-04T06:22:06.735Z,1003.74
2022-12-04T06:23:06.721Z,1003.71
2022-12-04T06:24:06.711Z,1003.69
2022-12-04T06:25:06.694Z,1003.73
2022-12-04T06:26:07.257Z,1003.71
2022-12-04T06:28:06.663Z,1003.71
2022-12-04T06:29:06.645Z,1003.72
2022-12-04T06:30:06.626Z,1003.80
2022-12-04T06:31:06.668Z,1003.72
2022-12-04T06:32:06.645Z,1003.73
2022-12-04T06:33:06.609Z,1003.68
2022-12-04T06:34:06.577Z,1003.65
2022-12-04T06:35:06.567Z,1003.65
2022-12-04T06:36:06.547Z,1003.64
2022-12-04T06:37:06.538Z,1003.68
2022-12-04T06:38:06.524Z,1003.69
2022-12-04T06:39:06.512Z,1003.68
2022-12-04T06:40:06.492Z,1003.69
2022-12-04T06:41:06.485Z,1003.66
2022-12-04T06:42:06.465Z,1003.74
2022-12-04T06:43:06.453Z,1003.67
2022-12-04T06:44:06.437Z,1003.70
2022-12-04T06:45:06.425Z,1003.75
2022-12-04T06:46:06.476Z,1003.66
2022-12-04T06:47:12.336Z,1003.63
2022-12-04T06:48:06.380Z,1003.65
2022-12-04T06:49:06.374Z,1003.67
2022-12-04T06:50:06.357Z,1003.63
2022-12-04T06:51:06.342Z,1003.63
2022-12-04T06:52:06.327Z,1003.60
2022-12-04T06:53:08.442Z,1003.61
2022-12-04T06:54:06.298Z,1003.62
2022-12-04T06:55:06.288Z,1003.60
2022-12-04T06:56:06.273Z,1003.61
2022-12-04T06:57:06.263Z,1003.64
2022-12-04T06:58:06.249Z,1003.66
2022-12-04T06:59:06.247Z,1003.66
2022-12-04T07:00:06.251Z,1003.62
2022-12-04T07:01:06.251Z,1003.61
2022-12-04T07:02:06.209Z,1003.62
2022-12-04T07:03:06.182Z,1003.62
2022-12-04T07:04:06.169Z,1003.63
2022-12-04T07:05:06.154Z,1003.64
2022-12-04T07:06:06.139Z,1003.67
2022-12-04T07:07:06.126Z,1003.66
2022-12-04T07:08:06.181Z,1003.63
2022-12-04T07:09:06.099Z,1003.59
2022-12-04T07:10:06.083Z,1003.67
2022-12-04T07:11:06.071Z,1003.66
2022-12-04T07:12:06.059Z,1003.66
2022-12-04T07:13:06.040Z,1003.62
2022-12-04T07:14:06.025Z,1003.60
2022-12-04T07:15:06.017Z,1003.61
2022-12-04T07:16:06.064Z,1003.56
2022-12-04T07:17:06.038Z,1003.56
2022-12-04T07:18:05.977Z,1003.50
2022-12-04T07:19:05.961Z,1003.52
2022-12-04T07:20:05.947Z,1003.54
2022-12-04T07:21:05.932Z,1003.51
2022-12-04T07:22:05.934Z,1003.52
2022-12-04T07:23:07.499Z,1003.51
2022-12-04T07:24:05.915Z,1003.44
2022-12-04T07:25:05.877Z,1003.46
2022-12-04T07:26:05.883Z,1003.49
2022-12-04T07:27:05.850Z,1003.48
2022-12-04T07:28:05.838Z,1003.48
2022-12-04T07:29:05.838Z,1003.48
2022-12-04T07:30:08.784Z,1003.48
2022-12-04T07:31:05.795Z,1003.46
2022-12-04T07:32:05.884Z,1003.44
2022-12-04T07:33:05.762Z,1003.51
2022-12-04T07:34:05.759Z,1003.59
2022-12-04T07:35:05.740Z,1003.58
2022-12-04T07:36:05.725Z,1003.60
2022-12-04T07:37:05.712Z,1003.61
2022-12-04T07:38:05.701Z,1003.59
2022-12-04T07:39:05.685Z,1003.58
2022-12-04T07:40:05.672Z,1003.54
2022-12-04T07:41:05.661Z,1003.54
2022-12-04T07:42:05.651Z,1003.50
2022-12-04T07:43:05.631Z,1003.54
2022-12-04T07:44:05.626Z,1003.53
2022-12-04T07:45:05.606Z,1003.55
2022-12-04T07:46:05.655Z,1003.49
2022-12-04T07:47:05.575Z,1003.51
2022-12-04T07:48:05.564Z,1003.51
2022-12-04T07:49:05.551Z,1003.53
2022-12-04T07:50:05.534Z,1003.56
2022-12-04T07:51:05.517Z,1003.58
2022-12-04T07:52:05.513Z,1003.60
2022-12-04T07:53:05.490Z,1003.63
2022-12-04T07:54:05.506Z,1003.59
2022-12-04T07:55:05.466Z,1003.68
2022-12-04T07:56:05.453Z,1003.67
2022-12-04T07:57:05.441Z,1003.72
2022-12-04T07:58:05.426Z,1003.71
2022-12-04T07:59:05.412Z,1003.67
2022-12-04T08:00:05.421Z,1003.73
2022-12-04T08:01:05.501Z,1003.75
2022-12-04T08:02:05.388Z,1003.73
2022-12-04T08:03:05.358Z,1003.75
2022-12-04T08:04:05.445Z,1003.79
2022-12-04T08:05:05.350Z,1003.79
2022-12-04T08:06:05.317Z,1003.80
2022-12-04T08:07:05.295Z,1003.82
2022-12-04T08:08:05.362Z,1003.85
2022-12-04T08:09:09.864Z,1003.86
2022-12-04T08:10:05.262Z,1003.81
2022-12-04T08:11:05.250Z,1003.87
2022-12-04T08:12:05.238Z,1003.84
2022-12-04T08:13:05.221Z,1003.87
2022-12-04T08:14:05.225Z,1003.87
2022-12-04T08:15:05.189Z,1003.88
2022-12-04T08:16:05.206Z,1003.94
2022-12-04T08:17:05.223Z,1003.91
2022-12-04T08:18:05.153Z,1003.90
2022-12-04T08:19:05.140Z,1003.89
2022-12-04T08:20:05.122Z,1003.92
2022-12-04T08:21:05.112Z,1003.90
2022-12-04T08:22:05.099Z,1003.87
2022-12-04T08:23:05.083Z,1003.90
2022-12-04T08:24:05.072Z,1003.90
2022-12-04T08:25:05.054Z,1003.85
2022-12-04T08:26:05.046Z,1003.82
2022-12-04T08:27:05.029Z,1003.84
2022-12-04T08:28:05.018Z,1003.83
2022-12-04T08:29:05.011Z,1003.84
2022-12-04T08:30:04.991Z,1003.83
2022-12-04T08:31:05.067Z,1003.81
2022-12-04T08:32:04.956Z,1003.73
2022-12-04T08:33:04.947Z,1003.71
2022-12-04T08:34:04.939Z,1003.73
2022-12-04T08:35:04.916Z,1003.77
2022-12-04T08:36:04.905Z,1003.71
2022-12-04T08:37:04.890Z,1003.71
2022-12-04T08:38:04.876Z,1003.71
2022-12-04T08:39:04.875Z,1003.76
2022-12-04T08:40:04.850Z,1003.73
2022-12-04T08:41:04.838Z,1003.68
2022-12-04T08:42:04.823Z,1003.70
2022-12-04T08:43:04.806Z,1003.67
2022-12-04T08:44:04.795Z,1003.63
2022-12-04T08:45:04.783Z,1003.66
2022-12-04T08:46:04.855Z,1003.57
2022-12-04T08:47:04.761Z,1003.59
2022-12-04T08:48:04.739Z,1003.58
2022-12-04T08:49:04.730Z,1003.59
2022-12-04T08:50:04.712Z,1003.59
2022-12-04T08:51:04.699Z,1003.62
2022-12-04T08:52:04.690Z,1003.59
2022-12-04T08:53:04.670Z,1003.68
2022-12-04T08:54:04.660Z,1003.67
2022-12-04T08:55:04.643Z,1003.70
2022-12-04T08:56:04.638Z,1003.71
2022-12-04T08:57:04.619Z,1003.69
2022-12-04T08:58:04.615Z,1003.68
2022-12-04T08:59:04.592Z,1003.66
2022-12-04T09:00:04.584Z,1003.64
2022-12-04T09:01:04.608Z,1003.64
2022-12-04T09:02:04.637Z,1003.63
2022-12-04T09:03:04.534Z,1003.59
2022-12-04T09:04:04.599Z,1003.62
2022-12-04T09:05:04.512Z,1003.58
2022-12-04T09:06:04.495Z,1003.55
2022-12-04T09:07:04.481Z,1003.55
2022-12-04T09:08:04.505Z,1003.57
2022-12-04T09:09:04.454Z,1003.51
2022-12-04T09:10:04.438Z,1003.50
2022-12-04T09:11:04.428Z,1003.55
2022-12-04T09:12:04.414Z,1003.54
2022-12-04T09:13:04.397Z,1003.54
2022-12-04T09:14:04.401Z,1003.58
2022-12-04T09:15:04.366Z,1003.61
2022-12-04T09:16:04.390Z,1003.65
2022-12-04T09:17:04.345Z,1003.66
2022-12-04T09:18:04.330Z,1003.66
2022-12-04T09:19:04.319Z,1003.61
2022-12-04T09:20:04.632Z,1003.66
2022-12-04T09:21:04.310Z,1003.64
2022-12-04T09:22:04.274Z,1003.68
2022-12-04T09:23:05.280Z,1003.73
2022-12-04T09:24:04.247Z,1003.76
2022-12-04T09:25:04.238Z,1003.81
2022-12-04T09:26:04.224Z,1003.76
2022-12-04T09:27:04.205Z,1003.77
2022-12-04T09:28:04.198Z,1003.74
2022-12-04T09:29:04.178Z,1003.73
2022-12-04T09:30:04.164Z,1003.70
2022-12-04T09:31:04.197Z,1003.68
2022-12-04T09:32:04.139Z,1003.67
2022-12-04T09:33:04.122Z,1003.64
2022-12-04T09:34:04.132Z,1003.59
2022-12-04T09:35:04.097Z,1003.62
2022-12-04T09:36:04.080Z,1003.64
2022-12-04T09:37:04.076Z,1003.70
2022-12-04T09:38:04.054Z,1003.71
2022-12-04T09:39:04.037Z,1003.67
2022-12-04T09:40:04.030Z,1003.63
2022-12-04T09:41:04.015Z,1003.58
2022-12-04T09:42:04.002Z,1003.56
2022-12-04T09:43:03.985Z,1003.53
2022-12-04T09:44:03.973Z,1003.50
2022-12-04T09:45:03.967Z,1003.50
2022-12-04T09:46:04.006Z,1003.48
2022-12-04T09:47:04.059Z,1003.47
2022-12-04T09:48:03.923Z,1003.47
2022-12-04T09:49:03.907Z,1003.46
2022-12-04T09:50:03.893Z,1003.48
2022-12-04T09:51:03.878Z,1003.49
2022-12-04T09:52:03.862Z,1003.53
2022-12-04T09:53:03.862Z,1003.59
2022-12-04T09:54:03.843Z,1003.59
2022-12-04T09:55:03.826Z,1003.63
2022-12-04T09:56:03.817Z,1003.65
2022-12-04T09:57:03.799Z,1003.64
2022-12-04T09:58:03.783Z,1003.62
2022-12-04T09:59:03.798Z,1003.63
2022-12-04T10:00:03.763Z,1003.56
2022-12-04T10:01:03.749Z,1003.57
2022-12-04T10:02:03.798Z,1003.54
2022-12-04T10:03:04.032Z,1003.53
2022-12-04T10:04:06.440Z,1003.47
2022-12-04T10:05:03.690Z,1003.52
2022-12-04T10:06:03.678Z,1003.52
2022-12-04T10:07:03.668Z,1003.54
2022-12-04T10:08:03.670Z,1003.53
2022-12-04T10:09:03.638Z,1003.56
2022-12-04T10:10:03.621Z,1003.57
2022-12-04T10:11:03.613Z,1003.55
2022-12-04T10:12:03.591Z,1003.54
2022-12-04T10:13:03.587Z,1003.56
2022-12-04T10:14:03.570Z,1003.52
2022-12-04T10:15:03.549Z,1003.49
2022-12-04T10:16:03.648Z,1003.49
2022-12-04T10:17:03.549Z,1003.52
2022-12-04T10:18:03.510Z,1003.48
2022-12-04T10:19:03.503Z,1003.45
2022-12-04T10:20:03.481Z,1003.43
2022-12-04T10:21:03.468Z,1003.41
2022-12-04T10:22:03.461Z,1003.45
2022-12-04T10:23:03.457Z,1003.45
2022-12-04T10:24:03.447Z,1003.47
2022-12-04T10:25:03.417Z,1003.43
2022-12-04T10:26:03.404Z,1003.37
2022-12-04T10:27:03.393Z,1003.40
2022-12-04T10:28:03.376Z,1003.38
2022-12-04T10:29:03.381Z,1003.36
2022-12-04T10:30:03.347Z,1003.32
2022-12-04T10:31:03.462Z,1003.28
2022-12-04T10:32:03.322Z,1003.27
2022-12-04T10:33:03.307Z,1003.25
2022-12-04T10:34:03.292Z,1003.25
2022-12-04T10:35:03.279Z,1003.25
2022-12-04T10:36:03.260Z,1003.25
2022-12-04T10:37:03.252Z,1003.21
2022-12-04T10:38:03.237Z,1003.21
2022-12-04T10:39:03.392Z,1003.25
2022-12-04T10:40:03.212Z,1003.23
2022-12-04T10:41:03.203Z,1003.22
2022-12-04T10:42:03.189Z,1003.23
2022-12-04T10:43:03.170Z,1003.16
2022-12-04T10:44:03.160Z,1003.19
2022-12-04T10:45:03.140Z,1003.18
2022-12-04T10:46:03.181Z,1003.19
2022-12-04T10:47:03.208Z,1003.16
2022-12-04T10:48:03.108Z,1003.17
2022-12-04T10:49:03.096Z,1003.14
2022-12-04T10:50:03.079Z,1003.09
2022-12-04T10:51:03.065Z,1003.13
2022-12-04T10:52:03.054Z,1003.14
2022-12-04T10:53:03.042Z,1003.09
2022-12-04T10:54:03.027Z,1003.14
2022-12-04T10:55:03.008Z,1003.05
2022-12-04T10:56:03.007Z,1003.03
2022-12-04T10:57:02.993Z,1002.99
2022-12-04T10:58:02.985Z,1002.96
2022-12-04T10:59:02.956Z,1003.02
2022-12-04T11:00:02.950Z,1002.96
2022-12-04T11:01:02.934Z,1002.93
2022-12-04T11:02:06.559Z,1002.94
2022-12-04T11:03:02.982Z,1002.86
2022-12-04T11:04:02.892Z,1002.89
2022-12-04T11:05:02.881Z,1002.89
2022-12-04T11:06:02.867Z,1002.85
2022-12-04T11:07:02.851Z,1002.90
2022-12-04T11:08:03.061Z,1002.86
2022-12-04T11:09:02.822Z,1002.85
2022-12-04T11:10:02.811Z,1002.87
2022-12-04T11:11:02.797Z,1002.83
2022-12-04T11:12:02.785Z,1002.88
2022-12-04T11:13:02.770Z,1002.81
2022-12-04T11:14:02.754Z,1002.83
2022-12-04T11:15:02.741Z,1002.81
2022-12-04T11:16:02.813Z,1002.76
2022-12-04T11:17:02.723Z,1002.75
2022-12-04T11:18:02.711Z,1002.75
2022-12-04T11:19:02.690Z,1002.79
2022-12-04T11:20:02.697Z,1002.78
2022-12-04T11:21:02.664Z,1002.77
2022-12-04T11:22:02.652Z,1002.76
2022-12-04T11:23:02.636Z,1002.74
2022-12-04T11:24:02.625Z,1002.67
2022-12-04T11:25:02.610Z,1002.67
2022-12-04T11:26:06.164Z,1002.62
2022-12-04T11:27:02.589Z,1002.60
2022-12-04T11:28:02.578Z,1002.60
2022-12-04T11:29:02.559Z,1002.53
2022-12-04T11:30:02.547Z,1002.56
2022-12-04T11:31:02.583Z,1002.57
2022-12-04T11:32:07.549Z,1002.60
2022-12-04T11:33:02.503Z,1002.53
2022-12-04T11:34:02.495Z,1002.61
2022-12-04T11:35:02.481Z,1002.59
2022-12-04T11:36:02.466Z,1002.63
2022-12-04T11:37:02.452Z,1002.67
2022-12-04T11:38:02.447Z,1002.65
2022-12-04T11:39:02.424Z,1002.68
2022-12-04T11:40:02.413Z,1002.68
2022-12-04T11:41:02.401Z,1002.73
2022-12-04T11:42:02.386Z,1002.72
2022-12-04T11:43:02.370Z,1002.73
2022-12-04T11:44:02.360Z,1002.72
2022-12-04T11:45:02.348Z,1002.72
2022-12-04T11:46:02.337Z,1002.67
2022-12-04T11:47:02.326Z,1002.71
2022-12-04T11:48:02.305Z,1002.70
2022-12-04T11:49:02.294Z,1002.70
2022-12-04T11:50:02.274Z,1002.75
2022-12-04T11:51:02.268Z,1002.71
2022-12-04T11:52:02.253Z,1002.71
2022-12-04T11:53:02.237Z,1002.77
2022-12-04T11:54:02.227Z,1002.77
2022-12-04T11:55:02.217Z,1002.74
2022-12-04T11:56:02.198Z,1002.75
2022-12-04T11:57:02.187Z,1002.73
2022-12-04T11:58:02.173Z,1002.75
2022-12-04T11:59:02.157Z,1002.73
2022-12-04T12:00:02.147Z,1002.75
2022-12-04T12:01:02.133Z,1002.70
2022-12-04T12:02:02.226Z,1002.72
2022-12-04T12:03:02.249Z,1002.74
2022-12-04T12:04:02.092Z,1002.75
2022-12-04T12:05:02.076Z,1002.72
2022-12-04T12:06:02.067Z,1002.77
2022-12-04T12:07:02.055Z,1002.85
2022-12-04T12:08:03.100Z,1002.83
2022-12-04T12:09:02.027Z,1002.88
2022-12-04T12:10:02.009Z,1002.94
2022-12-04T12:11:02.009Z,1002.92
2022-12-04T12:12:01.985Z,1002.93
2022-12-04T12:13:01.976Z,1002.94
2022-12-04T12:14:01.975Z,1002.89
2022-12-04T12:15:01.952Z,1002.83
2022-12-04T12:16:02.000Z,1002.82
2022-12-04T12:17:01.923Z,1002.84
2022-12-04T12:18:01.907Z,1002.79
2022-12-04T12:19:01.894Z,1002.81
2022-12-04T12:20:01.880Z,1002.88
2022-12-04T12:21:01.869Z,1002.86
2022-12-04T12:22:05.373Z,1002.88
2022-12-04T12:23:01.844Z,1002.88
2022-12-04T12:24:01.834Z,1002.87
2022-12-04T12:25:01.814Z,1002.86
2022-12-04T12:26:01.801Z,1002.85
2022-12-04T12:27:01.789Z,1002.84
2022-12-04T12:28:01.776Z,1002.87
2022-12-04T12:29:01.761Z,1002.86
2022-12-04T12:30:01.753Z,1002.83
2022-12-04T12:31:05.717Z,1002.78
2022-12-04T12:32:01.774Z,1002.78
2022-12-04T12:33:01.709Z,1002.74
2022-12-04T12:34:01.732Z,1002.71
2022-12-04T12:35:01.681Z,1002.72
2022-12-04T12:36:01.667Z,1002.73
2022-12-04T12:37:01.688Z,1002.70
2022-12-04T12:38:01.642Z,1002.71
2022-12-04T12:39:01.631Z,1002.70
2022-12-04T12:40:01.620Z,1002.69
2022-12-04T12:41:01.602Z,1002.66
2022-12-04T12:42:01.590Z,1002.71
2022-12-04T12:43:01.615Z,1002.72
2022-12-04T12:44:01.565Z,1002.73
2022-12-04T12:45:01.559Z,1002.72
2022-12-04T12:46:01.589Z,1002.72
2022-12-04T12:47:01.525Z,1002.72
2022-12-04T12:48:01.511Z,1002.74
2022-12-04T12:49:01.501Z,1002.74
2022-12-04T12:50:01.508Z,1002.69
2022-12-04T12:51:22.069Z,1002.72
2022-12-04T12:52:01.458Z,1002.75
2022-12-04T12:53:01.443Z,1002.77
2022-12-04T12:54:01.433Z,1002.73
2022-12-04T12:55:01.417Z,1002.73
2022-12-04T12:56:01.407Z,1002.78
2022-12-04T12:57:01.394Z,1002.78
2022-12-04T12:58:01.405Z,1002.71
2022-12-04T12:59:01.363Z,1002.73
2022-12-04T13:00:01.351Z,1002.73
2022-12-04T13:01:01.410Z,1002.72
2022-12-04T13:02:01.564Z,1002.76
2022-12-04T13:03:01.427Z,1002.77
2022-12-04T13:04:01.300Z,1002.80
2022-12-04T13:05:01.291Z,1002.79
2022-12-04T13:06:01.272Z,1002.84
2022-12-04T13:07:01.262Z,1002.82
2022-12-04T13:08:01.389Z,1002.80
2022-12-04T13:09:01.232Z,1002.75
2022-12-04T13:10:01.221Z,1002.74
2022-12-04T13:11:01.205Z,1002.73
2022-12-04T13:12:01.201Z,1002.68
2022-12-04T13:13:01.184Z,1002.68
2022-12-04T13:14:01.163Z,1002.68
2022-12-04T13:15:01.150Z,1002.69
2022-12-04T13:16:01.138Z,1002.67
2022-12-04T13:17:01.207Z,1002.65
2022-12-04T13:18:01.118Z,1002.63
2022-12-04T13:19:01.098Z,1002.64
2022-12-04T13:20:05.392Z,1002.65
2022-12-04T13:21:01.073Z,1002.64
2022-12-04T13:22:01.070Z,1002.58
2022-12-04T13:23:01.049Z,1002.56
2022-12-04T13:24:01.033Z,1002.56
2022-12-04T13:25:01.024Z,1002.53
2022-12-04T13:26:01.012Z,1002.47